Time;durP1;ratioP1;P1;durP2;ratioP2;P2;SDS_P1;SDS_P2;PMS_P1;PMS_P2;Temp;Humidity;BMP_temperature;BMP_pressure;BME280_temperature;BME280_humidity;BME280_pressure;Samples;Min_cycle;Max_cycle;Signal;HPM_P1;HPM_P2
2022/02/28 00:01:39;;;;;;;10.88;4.72;;;;;;;1.45;67.36;102061.09;1598877;87;21082;-72
2022/02/28 00:04:14;;;;;;;8.45;4.80;;;;;;;1.44;67.44;102059.42;1635829;87;21095;-72
2022/02/28 00:06:46;;;;;;;9.93;5.05;;;;;;;1.43;67.55;102066.99;1633747;86;21011;-73
2022/02/28 00:09:16;;;;;;;9.43;4.70;;;;;;;1.43;67.64;102067.48;1623248;86;21520;-71
2022/02/28 00:11:44;;;;;;;9.28;5.33;;;;;;;1.40;67.65;102065.50;1636658;86;21048;-71
2022/02/28 00:14:38;;;;;;;9.73;5.40;;;;;;;1.40;67.68;102065.99;1630734;85;21185;-72
2022/02/28 00:17:06;;;;;;;7.62;4.50;;;;;;;1.36;67.75;102062.86;1632835;86;21086;-70
2022/02/28 00:19:33;;;;;;;9.25;4.70;;;;;;;1.32;67.80;102065.48;1631231;86;21146;-69
2022/02/28 00:22:00;;;;;;;9.83;5.42;;;;;;;1.27;67.85;102062.98;1631540;86;21050;-69
2022/02/28 00:24:26;;;;;;;11.78;5.55;;;;;;;1.20;67.93;102068.05;1629832;86;21121;-71
2022/02/28 00:27:01;;;;;;;8.60;5.03;;;;;;;1.15;68.04;102069.00;1624554;86;21524;-69
2022/02/28 00:29:37;;;;;;;8.48;4.58;;;;;;;1.08;68.14;102066.17;1616249;87;21063;-70
2022/02/28 00:32:16;;;;;;;7.97;4.70;;;;;;;1.03;68.29;102067.16;1634211;86;21161;-70
2022/02/28 00:34:49;;;;;;;7.83;4.67;;;;;;;0.98;68.36;102062.02;1600537;87;21048;-70
2022/02/28 00:37:16;;;;;;;8.38;4.80;;;;;;;0.96;68.54;102065.32;1628203;85;20957;-71
2022/02/28 00:39:44;;;;;;;9.05;4.83;;;;;;;0.90;68.66;102065.45;1628814;85;21935;-70
2022/02/28 00:42:14;;;;;;;9.15;5.28;;;;;;;0.84;68.82;102066.88;1622927;86;21121;-72
2022/02/28 00:44:40;;;;;;;7.92;4.50;;;;;;;0.80;68.88;102064.73;1624149;86;21075;-70
2022/02/28 00:47:22;;;;;;;9.45;5.30;;;;;;;0.77;68.96;102072.44;1624108;86;21130;-70
2022/02/28 00:50:08;;;;;;;8.88;5.20;;;;;;;0.73;69.04;102070.28;1602517;87;21029;-72
2022/02/28 00:52:49;;;;;;;9.45;5.35;;;;;;;0.69;69.07;102064.48;1607952;87;21006;-72
2022/02/28 00:55:31;;;;;;;9.90;4.92;;;;;;;0.68;69.15;102064.97;1620177;84;20956;-70
2022/02/28 00:58:29;;;;;;;8.88;5.20;;;;;;;0.65;69.26;102059.20;1623209;86;21128;-70
2022/02/28 01:01:11;;;;;;;8.48;4.70;;;;;;;0.60;69.31;102065.42;1598821;86;21109;-71
2022/02/28 01:03:56;;;;;;;10.30;4.78;;;;;;;0.54;69.44;102067.35;1627693;85;21001;-69
2022/02/28 01:06:33;;;;;;;7.35;4.45;;;;;;;0.52;69.51;102065.36;1576335;87;21025;-70
2022/02/28 01:09:00;;;;;;;10.08;4.85;;;;;;;0.48;69.60;102066.16;1586162;88;21107;-70
2022/02/28 01:11:27;;;;;;;7.42;4.15;;;;;;;0.47;69.61;102065.83;1624263;86;21093;-72
2022/02/28 01:13:56;;;;;;;10.95;4.92;;;;;;;0.44;69.60;102061.70;1618382;87;21094;-71
2022/02/28 01:16:24;;;;;;;8.88;5.08;;;;;;;0.44;69.58;102070.89;1632452;86;20952;-71
2022/02/28 01:19:10;;;;;;;10.53;4.58;;;;;;;0.43;69.56;102066.63;1637107;85;21087;-72
2022/02/28 01:21:36;;;;;;;9.40;5.00;;;;;;;0.41;69.49;102056.73;1625599;86;21012;-71
2022/02/28 01:24:04;;;;;;;6.95;4.03;;;;;;;0.43;69.37;102046.91;1599507;89;21017;-70
2022/02/28 01:26:31;;;;;;;7.80;4.85;;;;;;;0.45;69.24;102063.34;1636676;86;21200;-70
2022/02/28 01:28:58;;;;;;;9.10;5.10;;;;;;;0.41;69.15;102065.94;1633374;85;20967;-70
2022/02/28 01:31:26;;;;;;;8.63;5.25;;;;;;;0.39;69.12;102066.57;1615048;86;21545;-70
2022/02/28 01:33:54;;;;;;;10.30;4.85;;;;;;;0.39;69.05;102065.75;1631678;86;21064;-71
2022/02/28 01:36:21;;;;;;;8.18;4.92;;;;;;;0.39;68.95;102061.81;1633787;86;21082;-70
2022/02/28 01:38:48;;;;;;;8.33;4.92;;;;;;;0.39;68.88;102065.25;1632341;86;21688;-71
2022/02/28 01:41:15;;;;;;;9.85;5.00;;;;;;;0.37;68.84;102063.28;1632748;86;21083;-70
2022/02/28 01:43:44;;;;;;;8.35;5.05;;;;;;;0.34;68.80;102065.40;1603698;88;21161;-69
2022/02/28 01:46:10;;;;;;;8.78;5.30;;;;;;;0.32;68.84;102068.66;1585209;87;21094;-69
2022/02/28 01:48:39;;;;;;;10.32;6.30;;;;;;;0.33;68.81;102068.98;1615346;87;21127;-70
2022/02/28 01:51:06;;;;;;;9.33;5.65;;;;;;;0.35;68.80;102063.09;1629448;84;21024;-71
2022/02/28 01:53:38;;;;;;;10.00;5.80;;;;;;;0.39;68.76;102073.64;1621671;86;21055;-69
2022/02/28 01:56:05;;;;;;;11.18;6.00;;;;;;;0.42;68.64;102068.08;1586861;86;21531;-70
2022/02/28 01:58:46;;;;;;;10.45;5.95;;;;;;;0.46;68.55;102066.32;1605422;89;20948;-70
2022/02/28 02:01:13;;;;;;;9.98;5.95;;;;;;;0.48;68.49;102062.21;1603472;89;20984;-69
2022/02/28 02:03:43;;;;;;;9.03;5.47;;;;;;;0.45;68.42;102069.91;1577984;89;21112;-70
2022/02/28 02:06:11;;;;;;;9.15;5.33;;;;;;;0.42;68.37;102066.76;1626784;86;21024;-69
2022/02/28 02:08:39;;;;;;;9.70;5.83;;;;;;;0.37;68.35;102072.48;1606915;86;21132;-72
2022/02/28 02:11:07;;;;;;;9.60;5.25;;;;;;;0.29;68.43;102075.03;1602390;87;21091;-70
2022/02/28 02:13:49;;;;;;;8.15;5.58;;;;;;;0.22;68.58;102077.44;1624184;86;21043;-70
2022/02/28 02:16:16;;;;;;;9.53;5.55;;;;;;;0.12;68.71;102073.25;1623008;86;21120;-70
2022/02/28 02:18:42;;;;;;;12.05;5.90;;;;;;;0.08;68.78;102076.67;1625253;85;21063;-70
2022/02/28 02:21:09;;;;;;;10.80;5.95;;;;;;;0.05;68.90;102077.46;1615121;86;21130;-69
2022/02/28 02:23:36;;;;;;;11.12;6.28;;;;;;;0.04;68.98;102085.84;1627198;86;21123;-70
2022/02/28 02:26:03;;;;;;;13.25;6.80;;;;;;;0.02;69.02;102087.77;1627288;86;21011;-70
2022/02/28 02:28:30;;;;;;;11.00;6.90;;;;;;;0.01;69.11;102089.25;1632986;86;21669;-70
2022/02/28 02:30:57;;;;;;;11.25;6.55;;;;;;;-0.03;69.20;102093.49;1631290;86;21467;-70
2022/02/28 02:33:24;;;;;;;13.40;7.85;;;;;;;-0.08;69.31;102087.02;1601456;87;21524;-69
2022/02/28 02:35:54;;;;;;;15.75;8.48;;;;;;;-0.10;69.44;102081.08;1624699;86;21052;-70
2022/02/28 02:38:21;;;;;;;12.53;7.28;;;;;;;-0.13;69.51;102087.48;1599411;88;21090;-71
2022/02/28 02:40:50;;;;;;;11.93;6.40;;;;;;;-0.14;69.55;102077.11;1620523;86;21136;-70
2022/02/28 02:43:17;;;;;;;9.78;5.62;;;;;;;-0.15;69.68;102079.41;1623283;86;21523;-70
2022/02/28 02:45:43;;;;;;;10.38;5.65;;;;;;;-0.14;69.84;102084.50;1622065;86;21170;-70
2022/02/28 02:48:20;;;;;;;11.45;5.78;;;;;;;-0.15;70.03;102081.55;1624435;86;21027;-71
2022/02/28 02:50:51;;;;;;;9.78;5.60;;;;;;;-0.12;69.90;102084.36;1622916;86;21114;-69
2022/02/28 02:53:18;;;;;;;11.60;5.90;;;;;;;-0.10;69.97;102086.34;1606572;87;21070;-71
2022/02/28 02:55:46;;;;;;;9.43;4.53;;;;;;;-0.11;70.04;102082.89;1623989;86;21067;-70
2022/02/28 02:58:14;;;;;;;9.73;5.67;;;;;;;-0.09;70.09;102078.81;1605295;87;21969;-70
2022/02/28 03:00:44;;;;;;;8.00;4.90;;;;;;;-0.09;70.28;102080.95;1620838;86;21297;-70
2022/02/28 03:03:22;;;;;;;9.93;5.50;;;;;;;-0.06;70.35;102071.95;1628978;86;21100;-70
2022/02/28 03:05:59;;;;;;;8.38;4.67;;;;;;;-0.06;70.47;102071.45;1637699;85;21036;-70
2022/02/28 03:08:27;;;;;;;8.23;5.05;;;;;;;-0.04;70.62;102077.37;1631039;86;21640;-71
2022/02/28 03:10:53;;;;;;;8.20;5.10;;;;;;;-0.03;70.76;102074.28;1630904;86;21144;-70
2022/02/28 03:13:22;;;;;;;9.45;5.00;;;;;;;-0.03;70.74;102068.53;1633193;86;21137;-69
2022/02/28 03:15:52;;;;;;;7.95;4.37;;;;;;;-0.02;70.84;102073.30;1635525;86;21000;-70
2022/02/28 03:18:23;;;;;;;8.55;4.50;;;;;;;-0.01;70.87;102072.31;1628761;86;21158;-70
2022/02/28 03:20:51;;;;;;;8.48;4.50;;;;;;;-0.02;70.99;102080.69;1632281;86;21039;-70
2022/02/28 03:23:17;;;;;;;9.38;4.70;;;;;;;-0.01;71.03;102077.07;1631900;86;21064;-70
2022/02/28 03:25:49;;;;;;;9.40;4.83;;;;;;;-0.01;71.00;102083.64;1621176;86;21169;-70
2022/02/28 03:28:16;;;;;;;10.28;5.85;;;;;;;0.00;70.98;102073.98;1633505;87;21570;-69
2022/02/28 03:30:43;;;;;;;11.12;5.42;;;;;;;-0.02;71.01;102071.98;1633068;85;21109;-71
2022/02/28 03:33:11;;;;;;;8.80;5.05;;;;;;;-0.04;71.10;102079.17;1631320;86;20967;-70
2022/02/28 03:35:39;;;;;;;10.43;5.58;;;;;;;-0.08;71.17;102069.45;1625882;86;21167;-70
2022/02/28 03:38:05;;;;;;;11.73;5.95;;;;;;;-0.08;71.18;102075.20;1632430;87;21574;-70
2022/02/28 03:40:33;;;;;;;10.88;5.60;;;;;;;-0.08;71.17;102071.27;1630668;86;21176;-70
2022/02/28 03:43:01;;;;;;;10.10;4.97;;;;;;;-0.09;71.15;102064.37;1631752;86;21051;-70
2022/02/28 03:45:30;;;;;;;7.87;4.62;;;;;;;-0.10;71.12;102074.52;1629212;86;21097;-70
2022/02/28 03:47:58;;;;;;;7.45;4.10;;;;;;;-0.12;71.13;102071.23;1631905;86;21866;-71
2022/02/28 03:50:45;;;;;;;8.65;4.12;;;;;;;-0.14;71.14;102069.23;1631179;86;21668;-70
2022/02/28 03:53:12;;;;;;;7.53;3.80;;;;;;;-0.14;71.09;102077.11;1630783;86;21090;-71
2022/02/28 03:55:40;;;;;;;7.87;4.65;;;;;;;-0.14;71.02;102073.99;1613470;86;21000;-69
2022/02/28 03:58:07;;;;;;;7.92;4.50;;;;;;;-0.16;70.98;102072.52;1630386;85;21043;-69
2022/02/28 04:00:33;;;;;;;9.25;4.70;;;;;;;-0.17;70.96;102076.91;1636922;86;21142;-70
2022/02/28 04:03:00;;;;;;;9.15;4.70;;;;;;;-0.15;70.91;102072.84;1614231;86;21620;-71
2022/02/28 04:05:27;;;;;;;9.03;4.47;;;;;;;-0.15;70.84;102077.60;1648668;86;21234;-71
2022/02/28 04:07:54;;;;;;;7.75;4.30;;;;;;;-0.16;70.81;102080.39;1626065;86;21119;-70
2022/02/28 04:10:22;;;;;;;10.60;5.22;;;;;;;-0.18;70.73;102079.21;1634111;87;20987;-71
2022/02/28 04:12:49;;;;;;;8.65;4.72;;;;;;;-0.18;70.69;102083.64;1601173;88;21205;-70
2022/02/28 04:15:15;;;;;;;7.87;4.20;;;;;;;-0.19;70.65;102084.63;1599926;87;21106;-71
2022/02/28 04:17:43;;;;;;;10.48;4.83;;;;;;;-0.22;70.61;102085.73;1622995;86;21111;-70
2022/02/28 04:20:18;;;;;;;7.15;4.20;;;;;;;-0.24;70.64;102093.75;1593145;86;21633;-70
2022/02/28 04:22:45;;;;;;;6.22;3.75;;;;;;;-0.25;70.57;102095.22;1622955;86;21094;-69
2022/02/28 04:25:12;;;;;;;9.98;5.00;;;;;;;-0.27;70.51;102101.92;1621837;86;21891;-71
2022/02/28 04:27:41;;;;;;;10.45;4.80;;;;;;;-0.30;70.45;102111.41;1621812;86;21074;-71
2022/02/28 04:30:11;;;;;;;7.67;4.50;;;;;;;-0.33;70.46;102104.31;1621164;86;21079;-70
2022/02/28 04:32:39;;;;;;;7.47;3.90;;;;;;;-0.33;70.48;102110.41;1623700;86;21169;-70
2022/02/28 04:35:08;;;;;;;7.22;4.42;;;;;;;-0.34;70.44;102109.23;1622683;86;21095;-71
2022/02/28 04:37:37;;;;;;;6.75;4.03;;;;;;;-0.35;70.41;102109.72;1621292;86;21171;-69
2022/02/28 04:40:08;;;;;;;7.50;3.87;;;;;;;-0.36;70.37;102116.41;1625573;86;21028;-70
2022/02/28 04:42:36;;;;;;;7.42;4.20;;;;;;;-0.38;70.34;102115.27;1622757;86;21099;-70
2022/02/28 04:45:05;;;;;;;7.65;3.95;;;;;;;-0.37;70.28;102118.22;1624314;86;21038;-70
2022/02/28 04:47:33;;;;;;;6.53;3.85;;;;;;;-0.39;70.22;102114.93;1605747;87;21094;-70
2022/02/28 04:50:09;;;;;;;9.15;4.67;;;;;;;-0.40;70.04;102113.26;1621387;88;21151;-70
2022/02/28 04:52:36;;;;;;;10.18;5.58;;;;;;;-0.40;70.04;102113.26;1601739;87;21182;-69
2022/02/28 04:55:04;;;;;;;11.45;5.28;;;;;;;-0.41;70.24;102119.98;1602298;87;21068;-70
2022/02/28 04:57:39;;;;;;;9.18;4.97;;;;;;;-0.41;70.23;102120.80;1621834;86;21087;-71
2022/02/28 05:00:07;;;;;;;6.42;4.00;;;;;;;-0.44;70.24;102118.47;1606123;86;21610;-70
2022/02/28 05:02:35;;;;;;;8.68;4.17;;;;;;;-0.42;70.21;102123.09;1628933;86;21145;-70
2022/02/28 05:05:15;;;;;;;7.53;3.90;;;;;;;-0.43;70.18;102122.73;1621997;86;21207;-70
2022/02/28 05:07:45;;;;;;;6.85;3.83;;;;;;;-0.41;70.15;102133.11;1620710;86;21724;-69
2022/02/28 05:10:11;;;;;;;8.75;3.98;;;;;;;-0.42;70.05;102132.28;1627359;86;21475;-71
2022/02/28 05:12:38;;;;;;;9.33;4.35;;;;;;;-0.40;70.01;102142.13;1633206;86;21091;-70
2022/02/28 05:15:07;;;;;;;8.10;4.83;;;;;;;-0.38;69.96;102141.52;1631705;86;21139;-70
2022/02/28 05:17:34;;;;;;;10.18;5.70;;;;;;;-0.37;69.92;102147.09;1636802;83;21000;-69
2022/02/28 05:20:01;;;;;;;9.20;6.25;;;;;;;-0.36;69.81;102147.45;1629317;85;20968;-70
2022/02/28 05:22:30;;;;;;;10.43;6.08;;;;;;;-0.33;69.87;102151.56;1624214;86;38027;-70
2022/02/28 05:24:57;;;;;;;10.15;5.47;;;;;;;-0.28;69.65;102146.72;1618174;86;21012;-70
2022/02/28 05:27:23;;;;;;;9.25;5.37;;;;;;;-0.24;69.52;102148.07;1626900;86;21501;-70
2022/02/28 05:29:55;;;;;;;8.48;5.22;;;;;;;-0.22;69.41;102146.62;1631786;86;21074;-69
2022/02/28 05:32:23;;;;;;;8.23;4.67;;;;;;;-0.19;69.19;102145.02;1605995;87;21035;-70
2022/02/28 05:34:51;;;;;;;8.68;4.47;;;;;;;-0.20;69.01;102145.48;1636061;85;21066;-70
2022/02/28 05:37:20;;;;;;;8.08;4.22;;;;;;;-0.19;69.02;102151.09;1630487;86;21139;-71
2022/02/28 05:39:51;;;;;;;6.78;4.17;;;;;;;-0.17;68.69;102147.81;1630021;86;21097;-71
2022/02/28 05:42:19;;;;;;;8.05;4.17;;;;;;;-0.12;68.51;102152.65;1632075;86;21040;-71
2022/02/28 05:44:48;;;;;;;6.62;3.75;;;;;;;-0.07;68.31;102151.70;1604841;87;21008;-71
2022/02/28 05:47:17;;;;;;;7.55;4.08;;;;;;;-0.03;67.98;102158.34;1623240;86;21127;-71
2022/02/28 05:49:48;;;;;;;6.05;3.42;;;;;;;-0.03;67.64;102158.34;1629834;86;21109;-70
2022/02/28 05:52:15;;;;;;;5.33;3.10;;;;;;;-0.01;67.10;102151.12;1631662;86;21562;-69
2022/02/28 05:54:43;;;;;;;7.08;3.65;;;;;;;0.02;66.83;102156.56;1630538;86;21542;-71
2022/02/28 05:57:09;;;;;;;6.80;3.45;;;;;;;0.06;66.52;102156.61;1630747;86;21086;-70
2022/02/28 05:59:35;;;;;;;6.67;3.70;;;;;;;0.09;65.96;102155.81;1629970;86;21102;-70
2022/02/28 06:02:03;;;;;;;6.50;2.95;;;;;;;0.09;65.47;102157.12;1629257;86;21138;-70
2022/02/28 06:04:29;;;;;;;6.03;3.30;;;;;;;0.10;65.04;102156.64;1634088;86;21589;-71
2022/02/28 06:06:58;;;;;;;5.92;2.90;;;;;;;0.12;64.82;102154.20;1634841;86;21187;-71
2022/02/28 06:09:24;;;;;;;5.20;3.12;;;;;;;0.15;64.54;102153.91;1628521;86;21577;-69
2022/02/28 06:11:53;;;;;;;5.95;3.42;;;;;;;0.16;64.01;102152.92;1633632;86;21489;-69
2022/02/28 06:14:30;;;;;;;5.25;2.98;;;;;;;0.15;63.68;102158.34;1633650;86;21034;-69
2022/02/28 06:16:57;;;;;;;6.12;2.80;;;;;;;0.18;63.72;102165.94;1632901;86;21099;-71
2022/02/28 06:19:26;;;;;;;6.58;2.92;;;;;;;0.21;63.44;102169.09;1632964;86;20953;-71
2022/02/28 06:21:55;;;;;;;5.80;2.98;;;;;;;0.26;63.22;102173.88;1631374;86;21073;-71
2022/02/28 06:24:22;;;;;;;4.95;2.50;;;;;;;0.32;62.94;102174.61;1634492;86;21131;-73
2022/02/28 06:26:49;;;;;;;4.83;2.50;;;;;;;0.37;62.60;102172.37;1632687;86;21617;-71
2022/02/28 06:29:16;;;;;;;5.67;2.65;;;;;;;0.42;62.36;102170.59;1601164;88;21167;-71
2022/02/28 06:31:44;;;;;;;5.65;2.83;;;;;;;0.48;62.11;102169.17;1597830;88;21004;-70
2022/02/28 06:34:12;;;;;;;6.97;2.80;;;;;;;0.53;61.67;102164.27;1624361;86;21242;-70
2022/02/28 06:36:40;;;;;;;5.15;2.67;;;;;;;0.64;61.67;102165.37;1622200;87;21049;-70
2022/02/28 06:39:14;;;;;;;5.03;2.90;;;;;;;0.70;61.50;102160.82;1630668;86;21131;-73
2022/02/28 06:41:41;;;;;;;8.20;3.60;;;;;;;0.78;61.04;102166.63;1631820;86;21542;-70
2022/02/28 06:44:08;;;;;;;6.85;3.30;;;;;;;0.85;60.87;102169.80;1633209;86;21451;-70
2022/02/28 06:46:35;;;;;;;6.95;3.60;;;;;;;0.90;60.20;102167.55;1632440;86;21605;-71
2022/02/28 06:49:02;;;;;;;5.70;3.33;;;;;;;1.00;60.17;102167.45;1631562;86;21110;-70
2022/02/28 06:51:28;;;;;;;8.08;3.40;;;;;;;1.11;59.96;102163.73;1630093;86;21138;-71
2022/02/28 06:53:56;;;;;;;6.45;3.20;;;;;;;1.18;59.17;102155.55;1632184;86;21163;-72
2022/02/28 06:56:23;;;;;;;6.00;3.42;;;;;;;1.30;59.12;102164.02;1628207;86;21454;-70
2022/02/28 06:58:49;;;;;;;6.97;3.25;;;;;;;1.36;58.42;102160.77;1629638;86;21135;-70
2022/02/28 07:01:18;;;;;;;6.60;4.05;;;;;;;1.43;58.22;102159.14;1629769;86;21101;-70
2022/02/28 07:03:56;;;;;;;8.68;4.22;;;;;;;1.51;57.77;102168.87;1573944;86;21066;-69
2022/02/28 07:06:22;;;;;;;8.08;4.20;;;;;;;1.59;57.18;102173.70;1630456;86;21218;-71
2022/02/28 07:08:50;;;;;;;5.33;3.25;;;;;;;1.63;56.76;102168.95;1630856;86;21143;-70
2022/02/28 07:11:17;;;;;;;6.03;3.75;;;;;;;1.68;56.20;102175.04;1627887;86;21150;-72
2022/02/28 07:13:43;;;;;;;6.03;3.00;;;;;;;1.75;55.98;102169.50;1629791;86;21104;-71
2022/02/28 07:16:10;;;;;;;6.15;2.95;;;;;;;1.77;55.00;102168.33;1629518;86;21027;-71
2022/02/28 07:18:37;;;;;;;5.10;3.05;;;;;;;1.81;54.60;102168.84;1629353;86;21211;-70
2022/02/28 07:21:05;;;;;;;5.67;2.98;;;;;;;1.84;54.19;102164.56;1633396;86;21139;-70
2022/02/28 07:23:32;;;;;;;6.15;3.45;;;;;;;1.89;54.20;102172.83;1629777;86;21078;-71
2022/02/28 07:25:59;;;;;;;7.92;3.33;;;;;;;1.98;54.13;102177.15;1630776;86;21043;-71
2022/02/28 07:28:26;;;;;;;6.78;3.25;;;;;;;2.02;53.18;102171.06;1627478;86;21176;-69
2022/02/28 07:30:53;;;;;;;5.55;3.15;;;;;;;2.04;52.53;102171.23;1630867;86;21811;-72
2022/02/28 07:33:20;;;;;;;8.28;3.20;;;;;;;2.11;52.24;102169.61;1628431;86;21678;-71
2022/02/28 07:35:47;;;;;;;10.28;2.90;;;;;;;2.11;51.28;102166.15;1629900;86;21074;-72
2022/02/28 07:38:16;;;;;;;6.42;3.87;;;;;;;2.04;51.20;102168.61;1633206;86;21082;-72
2022/02/28 07:40:43;;;;;;;5.40;3.42;;;;;;;2.08;51.29;102165.97;1635104;85;21138;-72
2022/02/28 07:43:11;;;;;;;6.33;3.95;;;;;;;2.18;51.60;102171.10;1618455;87;22039;-71
2022/02/28 07:45:37;;;;;;;8.38;3.30;;;;;;;2.24;51.30;102175.73;1632250;87;21027;-71
2022/02/28 07:48:04;;;;;;;6.37;3.00;;;;;;;2.28;50.85;102177.55;1630675;86;21067;-71
2022/02/28 07:50:32;;;;;;;5.75;3.15;;;;;;;2.29;50.12;102164.69;1614903;86;21526;-73
2022/02/28 07:53:00;;;;;;;8.55;3.67;;;;;;;2.35;50.53;102172.77;1634789;86;21071;-71
2022/02/28 07:55:32;;;;;;;6.05;3.33;;;;;;;2.41;50.29;102173.13;1630407;86;21139;-72
2022/02/28 07:58:00;;;;;;;6.65;3.47;;;;;;;2.44;50.19;102170.16;1631479;86;21071;-71
2022/02/28 08:00:28;;;;;;;8.18;4.22;;;;;;;2.47;50.06;102176.39;1630514;86;21071;-72
2022/02/28 08:02:56;;;;;;;6.40;3.27;;;;;;;2.53;50.20;102175.28;1630594;86;21214;-72
2022/02/28 08:05:23;;;;;;;5.92;3.65;;;;;;;2.66;49.87;102180.03;1629693;86;21121;-70
2022/02/28 08:07:52;;;;;;;6.72;3.92;;;;;;;2.77;49.80;102173.63;1628116;87;21178;-70
2022/02/28 08:10:18;;;;;;;5.83;3.33;;;;;;;2.91;49.55;102181.36;1629534;86;22212;-71
2022/02/28 08:12:45;;;;;;;6.33;3.58;;;;;;;3.04;49.01;102177.72;1630099;86;21075;-71
2022/02/28 08:15:12;;;;;;;6.95;3.58;;;;;;;3.13;48.68;102175.41;1628297;86;21134;-72
2022/02/28 08:17:40;;;;;;;6.50;3.58;;;;;;;3.18;48.44;102161.69;1630680;86;21072;-70
2022/02/28 08:20:08;;;;;;;7.53;3.67;;;;;;;3.17;48.34;102177.20;1629855;86;21157;-71
2022/02/28 08:22:37;;;;;;;5.40;3.05;;;;;;;3.20;48.42;102180.84;1630682;86;21093;-70
2022/02/28 08:25:07;;;;;;;5.75;3.30;;;;;;;3.19;48.14;102175.20;1630734;86;21199;-72
2022/02/28 08:27:34;;;;;;;6.95;4.00;;;;;;;3.22;48.17;102178.33;1627201;86;21102;-72
2022/02/28 08:30:03;;;;;;;7.42;3.65;;;;;;;3.28;47.96;102175.52;1630749;86;21146;-70
2022/02/28 08:32:30;;;;;;;7.08;3.70;;;;;;;3.33;47.91;102169.25;1627257;86;21214;-70
2022/02/28 08:34:59;;;;;;;7.70;3.50;;;;;;;3.34;47.60;102160.33;1631205;86;21557;-72
2022/02/28 08:37:26;;;;;;;7.03;3.20;;;;;;;3.38;47.80;102159.48;1623294;86;21150;-70
2022/02/28 08:39:57;;;;;;;5.33;2.60;;;;;;;3.42;47.56;102159.00;1630487;86;21078;-72
2022/02/28 08:42:26;;;;;;;6.22;2.92;;;;;;;3.42;47.25;102160.79;1628460;86;21212;-73
2022/02/28 08:44:53;;;;;;;5.78;3.02;;;;;;;3.35;46.99;102158.00;1633251;86;21626;-75
2022/02/28 08:47:20;;;;;;;5.20;3.05;;;;;;;3.33;47.40;102163.97;1631899;86;22409;-71
2022/02/28 08:49:46;;;;;;;6.20;3.35;;;;;;;3.39;47.47;102154.52;1629677;86;21139;-73
2022/02/28 08:52:13;;;;;;;7.28;3.80;;;;;;;3.41;47.47;102162.61;1628186;86;21679;-70
2022/02/28 08:54:40;;;;;;;5.58;3.15;;;;;;;3.52;47.14;102155.66;1628342;87;21122;-69
2022/02/28 08:57:06;;;;;;;6.00;3.37;;;;;;;3.52;46.77;102156.98;1636217;86;21156;-70
2022/02/28 08:59:36;;;;;;;5.45;2.98;;;;;;;3.52;46.71;102153.02;1630128;86;21067;-71
2022/02/28 09:02:08;;;;;;;5.62;3.00;;;;;;;3.57;46.43;102169.66;1604694;88;21047;-70
2022/02/28 09:04:37;;;;;;;6.33;3.00;;;;;;;3.57;46.50;102159.59;1606751;84;21166;-71
2022/02/28 09:07:04;;;;;;;6.55;2.90;;;;;;;3.59;46.51;102159.76;1634419;86;21025;-72
2022/02/28 09:09:34;;;;;;;6.17;3.17;;;;;;;3.68;46.72;102163.17;1633439;85;21065;-70
2022/02/28 09:12:09;;;;;;;5.50;2.83;;;;;;;3.79;46.61;102149.59;1610081;86;21107;-70
2022/02/28 09:14:52;;;;;;;5.87;3.05;;;;;;;3.92;46.65;102148.53;1597288;88;21666;-70
2022/02/28 09:17:18;;;;;;;7.42;3.25;;;;;;;4.04;45.98;102138.37;1619487;86;21150;-71
2022/02/28 09:19:47;;;;;;;4.83;2.65;;;;;;;4.10;45.66;102143.47;1624215;86;21037;-72
2022/02/28 09:22:15;;;;;;;5.83;3.08;;;;;;;4.18;45.32;102138.95;1615048;86;21815;-71
2022/02/28 09:24:43;;;;;;;5.65;3.10;;;;;;;4.24;45.24;102136.09;1629228;86;21090;-70
2022/02/28 09:27:10;;;;;;;5.42;2.85;;;;;;;4.33;45.33;102134.22;1629908;86;21657;-71
2022/02/28 09:29:44;;;;;;;5.80;2.95;;;;;;;4.45;44.69;102120.91;1628414;85;21576;-70
2022/02/28 09:32:23;;;;;;;5.83;2.60;;;;;;;4.53;44.42;102128.77;1608476;87;21143;-70
2022/02/28 09:34:56;;;;;;;4.75;2.60;;;;;;;4.53;43.57;102131.91;1629962;86;21206;-71
2022/02/28 09:37:32;;;;;;;7.67;3.52;;;;;;;4.57;43.76;102119.96;1631617;85;21058;-71
2022/02/28 09:40:08;;;;;;;7.20;3.72;;;;;;;4.63;43.88;102113.95;1631705;86;21106;-71
2022/02/28 09:42:45;;;;;;;5.40;2.62;;;;;;;4.70;43.80;102118.37;1631518;87;21039;-69
2022/02/28 09:45:31;;;;;;;5.85;2.90;;;;;;;4.81;43.73;102111.81;1522858;91;21124;-70
2022/02/28 09:48:21;;;;;;;;;;;;;;;4.98;43.78;102113.80;1633580;86;21178;-71
2022/02/28 09:51:13;;;;;;;6.10;3.22;;;;;;;5.17;43.13;102109.79;1636398;86;20222;-71
2022/02/28 09:53:50;;;;;;;7.05;3.45;;;;;;;5.29;42.55;102098.21;1626833;86;22105;-70
2022/02/28 09:56:26;;;;;;;5.25;3.00;;;;;;;5.36;42.28;102089.37;1627077;86;21550;-71
2022/02/28 09:59:04;;;;;;;6.97;2.80;;;;;;;5.44;42.19;102092.91;1630696;86;21684;-72
2022/02/28 10:01:48;;;;;;;5.65;2.83;;;;;;;5.50;41.98;102089.53;1605110;87;21237;-71
2022/02/28 10:04:23;;;;;;;4.30;2.45;;;;;;;5.56;41.32;102091.41;1620175;86;21169;-72
2022/02/28 10:07:02;;;;;;;4.65;2.37;;;;;;;5.49;40.98;102083.89;1636342;85;21093;-71
2022/02/28 10:09:38;;;;;;;5.10;2.75;;;;;;;5.43;41.24;102076.67;1632197;86;21075;-73
2022/02/28 10:12:15;;;;;;;4.67;2.40;;;;;;;5.47;41.34;102074.81;1630356;86;21114;-70
2022/02/28 10:14:50;;;;;;;4.85;2.52;;;;;;;5.56;41.48;102073.70;1597898;89;21165;-71
2022/02/28 10:17:26;;;;;;;4.75;2.50;;;;;;;5.69;40.91;102062.40;1623884;86;20979;-71
2022/02/28 10:20:04;;;;;;;4.78;2.37;;;;;;;5.75;40.26;102067.47;1624814;86;21109;-71
2022/02/28 10:22:43;;;;;;;5.10;2.72;;;;;;;5.77;40.21;102058.33;1614354;86;21062;-70
2022/02/28 10:25:28;;;;;;;4.20;2.30;;;;;;;5.84;40.25;102063.70;1630704;86;21122;-70
2022/02/28 10:28:18;;;;;;;3.83;1.98;;;;;;;5.98;40.09;102056.72;1561040;90;21215;-71
2022/02/28 10:31:03;;;;;;;4.80;2.08;;;;;;;6.15;39.42;102051.97;1604105;86;21098;-68
2022/02/28 10:33:52;;;;;;;5.03;2.52;;;;;;;6.20;38.89;102050.39;1606061;87;21137;-71
2022/02/28 10:36:38;;;;;;;6.10;2.30;;;;;;;6.22;38.78;102056.34;1606605;87;21177;-69
2022/02/28 10:39:16;;;;;;;3.98;2.12;;;;;;;6.21;38.31;102056.52;1598623;86;21008;-69
2022/02/28 10:41:52;;;;;;;4.37;2.33;;;;;;;6.23;38.37;102047.36;1620179;84;21345;-67
2022/02/28 10:44:29;;;;;;;3.95;1.72;;;;;;;6.26;37.68;102044.33;1589552;88;21032;-69
2022/02/28 10:47:06;;;;;;;3.92;2.00;;;;;;;6.31;37.73;102039.77;1598592;87;21039;-69
2022/02/28 10:49:40;;;;;;;4.55;2.15;;;;;;;6.37;37.46;102042.16;1627000;86;21640;-68
2022/02/28 10:52:16;;;;;;;3.90;2.20;;;;;;;6.37;37.58;102029.70;1615617;87;21094;-70
2022/02/28 10:54:52;;;;;;;3.72;2.00;;;;;;;6.40;37.33;102035.96;1629852;86;21138;-70
2022/02/28 10:57:29;;;;;;;2.70;1.50;;;;;;;6.41;36.70;102035.45;1631031;86;21035;-70
2022/02/28 11:00:08;;;;;;;3.27;1.80;;;;;;;6.37;36.39;102036.85;1602147;89;21599;-69
2022/02/28 11:02:45;;;;;;;3.37;1.72;;;;;;;6.39;36.64;102039.64;1626095;86;21093;-70
2022/02/28 11:05:25;;;;;;;4.28;1.77;;;;;;;6.49;36.64;102033.99;1631401;86;21657;-69
2022/02/28 11:07:59;;;;;;;4.50;1.80;;;;;;;6.60;36.43;102039.27;1621601;86;21153;-69
2022/02/28 11:10:35;;;;;;;4.12;2.12;;;;;;;6.68;36.62;102029.81;1622093;86;21633;-70
2022/02/28 11:13:10;;;;;;;3.75;1.77;;;;;;;6.64;37.22;102036.02;1608764;86;21648;-70
2022/02/28 11:15:48;;;;;;;3.52;1.90;;;;;;;6.65;37.63;102032.38;1620909;86;21195;-68
2022/02/28 11:18:24;;;;;;;6.00;3.00;;;;;;;6.64;37.32;102030.70;1620590;87;21080;-68
2022/02/28 11:20:59;;;;;;;5.72;3.33;;;;;;;6.60;37.74;102032.12;1606358;87;21188;-68
2022/02/28 11:23:34;;;;;;;3.77;1.90;;;;;;;6.64;38.18;102028.56;1582557;89;21065;-70
2022/02/28 11:26:10;;;;;;;3.47;2.00;;;;;;;6.70;37.75;102023.30;1603749;87;21033;-71
2022/02/28 11:28:45;;;;;;;3.98;1.82;;;;;;;6.74;37.29;102016.57;1604497;87;21066;-67
2022/02/28 11:31:21;;;;;;;3.55;1.85;;;;;;;6.72;37.68;102017.81;1621563;86;20987;-69
2022/02/28 11:34:09;;;;;;;3.85;2.08;;;;;;;6.71;37.62;102020.13;1623426;86;22540;-67
2022/02/28 11:36:55;;;;;;;5.33;2.15;;;;;;;6.65;37.91;102019.61;1611935;86;21118;-71
2022/02/28 11:39:43;;;;;;;3.75;2.05;;;;;;;6.58;38.04;102023.03;1594431;87;20997;-70
2022/02/28 11:42:16;;;;;;;7.20;2.37;;;;;;;6.60;38.51;102025.99;1590380;88;21222;-71
2022/02/28 11:45:00;;;;;;;2.92;1.70;;;;;;;6.58;38.55;102028.34;1621715;86;21145;-69
2022/02/28 11:47:36;;;;;;;3.65;1.92;;;;;;;6.54;37.47;102017.77;1597149;89;21138;-72